Time;durP1;ratioP1;P1;durP2;ratioP2;P2;SDS_P1;SDS_P2;PMS_P1;PMS_P2;Temp;Humidity;BMP_temperature;BMP_pressure;BME280_temperature;BME280_humidity;BME280_pressure;Samples;Min_cycle;Max_cycle;Signal;HPM_P1;HPM_P2
2023/04/20 00:01:25;;;;;;;3.65;2.95;;;9.30;98.70;;;;;;6091800;23;99533;-71
2023/04/20 00:03:52;;;;;;;4.20;2.75;;;9.40;98.70;;;;;;6066332;23;98956;-71
2023/04/20 00:06:20;;;;;;;4.07;3.00;;;9.30;98.80;;;;;;6066419;23;98842;-71
2023/04/20 00:08:47;;;;;;;4.72;2.70;;;9.30;98.80;;;;;;6092722;23;97781;-71
2023/04/20 00:11:14;;;;;;;3.60;2.60;;;9.40;98.90;;;;;;6066238;23;99197;-71
2023/04/20 00:13:42;;;;;;;4.35;2.72;;;9.40;98.90;;;;;;6091735;23;100279;-71
2023/04/20 00:16:09;;;;;;;4.22;2.55;;;9.40;99.00;;;;;;6065881;23;99141;-71
2023/04/20 00:18:36;;;;;;;3.47;2.60;;;9.50;98.80;;;;;;6066287;23;98563;-71
2023/04/20 00:21:03;;;;;;;3.92;2.55;;;9.50;98.90;;;;;;6092066;23;99238;-71
2023/04/20 00:23:30;;;;;;;3.60;2.70;;;9.50;98.90;;;;;;6092024;23;99011;-72
2023/04/20 00:25:57;;;;;;;4.80;2.40;;;9.40;99.10;;;;;;6066725;23;98429;-71
2023/04/20 00:28:24;;;;;;;4.78;3.00;;;9.50;98.90;;;;;;6066056;23;98531;-72
2023/04/20 00:30:50;;;;;;;3.90;2.33;;;9.50;99.10;;;;;;6065820;23;99369;-72
2023/04/20 00:33:17;;;;;;;6.20;2.50;;;9.40;99.10;;;;;;6042163;23;101448;-71
2023/04/20 00:35:44;;;;;;;5.05;2.60;;;9.40;99.10;;;;;;6092318;23;98477;-71
2023/04/20 00:38:11;;;;;;;4.50;2.40;;;9.50;99.20;;;;;;6042048;23;98396;-71
2023/04/20 00:40:38;;;;;;;3.70;1.90;;;9.40;99.20;;;;;;6065134;23;99800;-72
2023/04/20 00:43:10;;;;;;;2.60;2.25;;;9.40;99.30;;;;;;6091922;23;100405;-71
2023/04/20 00:45:37;;;;;;;4.53;2.60;;;9.40;99.40;;;;;;6066207;23;98637;-74
2023/04/20 00:48:05;;;;;;;3.10;2.33;;;9.40;99.60;;;;;;6092376;23;98388;-74
2023/04/20 00:50:37;;;;;;;2.38;2.17;;;9.40;99.50;;;;;;6091699;23;99252;-74
2023/04/20 00:53:10;;;;;;;3.03;1.90;;;9.40;99.60;;;;;;6092018;23;98875;-74
2023/04/20 00:55:37;;;;;;;7.03;2.30;;;9.40;99.70;;;;;;6041651;23;98499;-74
2023/04/20 00:58:05;;;;;;;6.57;2.85;;;9.40;99.80;;;;;;6066438;23;98312;-74
2023/04/20 01:00:33;;;;;;;3.22;2.28;;;9.40;99.70;;;;;;6065316;23;100497;-74
2023/04/20 01:03:00;;;;;;;5.38;2.40;;;9.50;99.80;;;;;;6091861;23;99042;-74
2023/04/20 01:05:27;;;;;;;2.90;2.30;;;9.50;99.80;;;;;;6065580;23;99249;-73
2023/04/20 01:07:54;;;;;;;3.35;2.78;;;9.60;99.80;;;;;;6041713;23;98518;-74
2023/04/20 01:10:21;;;;;;;2.75;1.88;;;9.60;99.60;;;;;;6065576;23;100361;-74
2023/04/20 01:12:48;;;;;;;4.10;2.42;;;9.60;99.40;;;;;;6091593;23;99010;-74
2023/04/20 01:15:15;;;;;;;3.47;2.10;;;9.60;99.60;;;;;;6042074;23;98557;-74
2023/04/20 01:17:42;;;;;;;3.08;2.13;;;9.70;99.40;;;;;;6092178;23;98443;-74
2023/04/20 01:20:11;;;;;;;4.30;2.13;;;9.70;99.20;;;;;;6091765;23;99237;-74
2023/04/20 01:22:46;;;;;;;3.00;1.95;;;9.80;99.10;;;;;;6092260;23;98789;-74
2023/04/20 01:25:14;;;;;;;5.40;2.50;;;9.80;98.70;;;;;;6066038;23;98572;-74
2023/04/20 01:27:41;;;;;;;2.55;2.00;;;9.80;98.80;;;;;;6092017;23;98468;-74
2023/04/20 01:30:09;;;;;;;2.92;1.98;;;9.80;98.70;;;;;;6064845;23;102401;-74
2023/04/20 01:32:37;;;;;;;2.67;2.20;;;9.80;98.50;;;;;;6091534;23;99608;-74
2023/04/20 01:35:04;;;;;;;2.97;2.17;;;9.80;98.50;;;;;;6092310;23;98504;-74
2023/04/20 01:37:31;;;;;;;3.33;1.90;;;9.80;98.70;;;;;;6092297;23;98456;-74
2023/04/20 01:40:02;;;;;;;4.68;2.30;;;9.80;98.80;;;;;;6065260;23;101825;-74
2023/04/20 01:42:29;;;;;;;5.35;2.15;;;9.80;99.00;;;;;;6065519;23;101659;-74
2023/04/20 01:44:57;;;;;;;2.92;2.15;;;9.80;99.00;;;;;;6065671;23;98524;-74
2023/04/20 01:47:24;;;;;;;3.83;2.30;;;9.90;99.30;;;;;;6092577;23;97754;-74
2023/04/20 01:49:50;;;;;;;3.38;2.33;;;9.80;99.60;;;;;;6065647;23;99320;-74
2023/04/20 01:52:17;;;;;;;5.43;2.15;;;9.80;99.50;;;;;;6065373;23;101523;-71
2023/04/20 01:54:44;;;;;;;8.85;2.20;;;9.80;99.80;;;;;;6065241;23;99209;-72
2023/04/20 01:57:11;;;;;;;4.47;2.30;;;9.70;99.90;;;;;;6065537;23;98520;-72
2023/04/20 01:59:38;;;;;;;2.15;1.95;;;9.70;99.90;;;;;;6064554;23;101476;-71
2023/04/20 02:02:05;;;;;;;3.63;2.20;;;9.70;99.90;;;;;;6065425;23;101575;-72
2023/04/20 02:04:32;;;;;;;4.68;2.40;;;9.70;99.90;;;;;;6065830;23;98575;-71
2023/04/20 02:06:59;;;;;;;6.15;2.30;;;9.70;99.90;;;;;;6090046;23;98580;-71
2023/04/20 02:09:26;;;;;;;2.15;1.92;;;9.80;99.90;;;;;;6091417;23;102725;-72
2023/04/20 02:11:53;;;;;;;3.17;2.15;;;9.70;99.90;;;;;;6066024;23;98930;-72
2023/04/20 02:14:20;;;;;;;3.13;2.13;;;9.70;99.90;;;;;;6041692;23;98535;-72
2023/04/20 02:16:47;;;;;;;4.47;2.45;;;9.70;99.90;;;;;;6041237;23;98544;-72
2023/04/20 02:19:14;;;;;;;4.57;2.20;;;9.70;99.90;;;;;;6089146;23;102369;-72
2023/04/20 02:21:42;;;;;;;2.20;2.00;;;9.70;99.90;;;;;;6065406;23;99816;-72
2023/04/20 02:24:08;;;;;;;4.75;1.92;;;9.70;99.90;;;;;;6091979;23;98416;-71
2023/04/20 02:26:35;;;;;;;4.68;2.40;;;9.60;99.90;;;;;;6065789;23;98817;-72
2023/04/20 02:29:02;;;;;;;3.53;2.25;;;9.50;99.90;;;;;;6064883;23;101697;-71
2023/04/20 02:31:29;;;;;;;5.30;2.30;;;9.50;99.90;;;;;;6065112;23;101873;-72
2023/04/20 02:33:56;;;;;;;3.92;2.10;;;9.40;99.90;;;;;;6065870;23;99215;-71
2023/04/20 02:36:27;;;;;;;4.25;2.50;;;9.40;99.90;;;;;;6092513;23;98000;-72
2023/04/20 02:38:53;;;;;;;4.13;1.50;;;9.30;99.90;;;;;;6065171;23;99303;-71
2023/04/20 02:41:20;;;;;;;3.75;2.17;;;9.20;99.90;;;;;;6040795;23;101569;-72
2023/04/20 02:43:47;;;;;;;5.45;2.45;;;9.20;99.90;;;;;;6065039;23;99805;-71
2023/04/20 02:46:16;;;;;;;4.07;2.40;;;9.20;99.90;;;;;;6065431;23;98448;-72
2023/04/20 02:48:43;;;;;;;6.18;2.42;;;9.20;99.90;;;;;;6064744;23;101915;-71
2023/04/20 02:51:10;;;;;;;5.82;2.55;;;9.30;99.90;;;;;;6065106;23;101218;-71
2023/04/20 02:53:41;;;;;;;4.78;2.80;;;9.30;99.90;;;;;;6065318;23;98536;-71
2023/04/20 02:56:15;;;;;;;3.00;1.88;;;9.30;99.90;;;;;;6065268;23;98461;-71
2023/04/20 02:58:47;;;;;;;4.10;2.72;;;9.40;99.90;;;;;;6041218;23;100278;-71
2023/04/20 03:01:19;;;;;;;6.35;2.45;;;9.40;99.90;;;;;;6041945;23;101036;-71
2023/04/20 03:03:49;;;;;;;4.20;2.08;;;9.40;99.90;;;;;;6041522;23;98973;-71
2023/04/20 03:06:16;;;;;;;4.80;2.90;;;9.40;99.90;;;;;;6091591;23;98523;-71
2023/04/20 03:08:49;;;;;;;2.40;2.20;;;9.40;99.90;;;;;;6064310;23;102471;-71
2023/04/20 03:11:44;;;;;;;5.25;2.60;;;9.40;99.70;;;;;;6088956;23;100507;-71
2023/04/20 03:14:19;;;;;;;3.35;2.65;;;9.40;99.60;;;;;;6066545;23;98426;-71
2023/04/20 03:16:46;;;;;;;3.88;2.38;;;9.40;99.10;;;;;;6066560;23;98521;-71
2023/04/20 03:19:14;;;;;;;4.07;2.63;;;9.50;98.80;;;;;;6090583;23;101522;-71
2023/04/20 03:21:43;;;;;;;3.55;2.05;;;9.50;98.40;;;;;;6065965;23;101517;-71
2023/04/20 03:24:10;;;;;;;4.82;2.60;;;9.40;98.10;;;;;;6066265;23;98446;-71
2023/04/20 03:26:38;;;;;;;11.43;2.60;;;9.50;97.90;;;;;;6043105;23;97836;-72
2023/04/20 03:29:12;;;;;;;3.45;2.22;;;9.50;97.70;;;;;;6043312;23;101741;-71
2023/04/20 03:31:39;;;;;;;7.05;2.63;;;9.50;97.80;;;;;;6066045;23;101530;-72
2023/04/20 03:34:07;;;;;;;6.50;2.38;;;9.50;97.70;;;;;;6065581;23;99211;-71
2023/04/20 03:36:35;;;;;;;5.80;2.50;;;9.60;97.50;;;;;;6066234;23;98589;-71
2023/04/20 03:39:03;;;;;;;5.15;2.40;;;9.60;97.50;;;;;;6091922;23;99191;-72
2023/04/20 03:41:30;;;;;;;4.72;2.67;;;9.60;97.50;;;;;;6065874;23;101371;-71
2023/04/20 03:43:57;;;;;;;4.80;2.72;;;9.60;97.60;;;;;;6066189;23;98450;-71
2023/04/20 03:46:24;;;;;;;3.85;2.47;;;9.60;98.50;;;;;;6092650;23;98503;-71
2023/04/20 03:48:51;;;;;;;6.07;2.50;;;9.50;99.50;;;;;;6041703;23;102129;-71
2023/04/20 03:51:18;;;;;;;4.20;2.22;;;9.40;99.90;;;;;;6066748;23;99053;-71
2023/04/20 03:53:45;;;;;;;3.53;2.45;;;9.30;99.90;;;;;;6066942;23;98541;-71
2023/04/20 03:56:13;;;;;;;3.78;2.72;;;9.10;99.90;;;;;;6066110;23;98571;-71
2023/04/20 03:58:40;;;;;;;6.40;3.35;;;8.80;99.90;;;;;;6041118;23;101908;-71
2023/04/20 04:01:20;;;;;;;5.55;2.92;;;8.60;99.90;;;;;;6044131;23;101581;-71
2023/04/20 04:03:48;;;;;;;4.00;2.90;;;8.30;99.90;;;;;;6066289;23;98482;-72
2023/04/20 04:06:16;;;;;;;7.13;3.10;;;8.10;99.90;;;;;;6042104;23;98519;-71
2023/04/20 04:08:43;;;;;;;6.28;2.65;;;8.00;99.90;;;;;;6065841;23;101745;-71
2023/04/20 04:11:10;;;;;;;5.75;3.03;;;7.90;99.90;;;;;;6091932;23;99054;-71
2023/04/20 04:13:37;;;;;;;4.05;3.03;;;7.90;99.90;;;;;;6042273;23;98494;-71
2023/04/20 04:16:06;;;;;;;5.97;3.15;;;7.80;99.90;;;;;;6066429;23;98139;-71
2023/04/20 04:18:34;;;;;;;5.47;2.80;;;7.70;99.90;;;;;;6041804;23;101958;-72
2023/04/20 04:21:09;;;;;;;6.18;2.80;;;7.60;99.90;;;;;;6064775;23;101130;-72
2023/04/20 04:23:37;;;;;;;4.20;3.28;;;7.50;99.90;;;;;;6042601;23;99138;-71
2023/04/20 04:26:17;;;;;;;6.45;3.55;;;7.40;99.90;;;;;;6066277;23;99408;-72
2023/04/20 04:28:44;;;;;;;3.53;2.78;;;7.40;99.90;;;;;;6065585;23;101514;-71
2023/04/20 04:31:21;;;;;;;5.88;2.63;;;7.40;99.90;;;;;;6043414;23;101408;-72
2023/04/20 04:33:48;;;;;;;3.90;3.15;;;7.30;99.90;;;;;;6066271;23;98478;-71
2023/04/20 04:36:25;;;;;;;6.18;3.53;;;7.20;99.90;;;;;;6066311;23;98504;-72
2023/04/20 04:38:54;;;;;;;7.03;2.97;;;7.20;99.90;;;;;;6041666;23;100423;-71
2023/04/20 04:41:22;;;;;;;6.38;3.45;;;7.30;99.90;;;;;;6041368;23;101525;-71
2023/04/20 04:43:49;;;;;;;5.43;3.38;;;7.30;99.90;;;;;;6041954;23;98497;-71
2023/04/20 04:46:27;;;;;;;6.45;3.67;;;7.20;99.90;;;;;;6044257;23;98556;-71
2023/04/20 04:48:59;;;;;;;6.00;3.10;;;7.30;99.90;;;;;;6041365;23;102828;-71
2023/04/20 04:51:26;;;;;;;6.38;3.45;;;7.20;99.90;;;;;;6090443;23;100937;-71
2023/04/20 04:53:53;;;;;;;4.35;2.90;;;7.20;99.90;;;;;;6066643;23;98521;-71
2023/04/20 04:56:21;;;;;;;4.82;2.90;;;7.20;99.90;;;;;;6066149;23;98527;-71
2023/04/20 04:58:48;;;;;;;4.30;3.00;;;7.30;99.90;;;;;;6091920;23;99192;-71
2023/04/20 05:01:15;;;;;;;3.42;2.60;;;7.30;99.90;;;;;;6065673;23;99555;-71
2023/04/20 05:03:41;;;;;;;3.95;2.75;;;7.30;99.90;;;;;;6041993;23;98489;-72
2023/04/20 05:06:08;;;;;;;4.78;3.13;;;7.40;99.90;;;;;;6092541;23;97770;-71
2023/04/20 05:08:35;;;;;;;3.50;3.05;;;7.40;99.90;;;;;;6065599;23;102101;-71
2023/04/20 05:11:02;;;;;;;4.28;2.88;;;7.40;99.90;;;;;;6065225;23;105409;-71
2023/04/20 05:13:29;;;;;;;4.43;2.97;;;7.40;99.90;;;;;;6065729;23;99158;-71
2023/04/20 05:15:56;;;;;;;3.88;3.47;;;7.50;99.90;;;;;;6041410;23;101317;-71
2023/04/20 05:18:23;;;;;;;4.25;2.60;;;7.60;99.90;;;;;;6065750;23;99150;-72
2023/04/20 05:20:51;;;;;;;4.30;3.05;;;7.60;99.90;;;;;;6065836;23;98986;-71
2023/04/20 05:23:18;;;;;;;3.13;2.40;;;7.70;99.90;;;;;;6065789;23;98420;-71
2023/04/20 05:25:45;;;;;;;3.03;2.47;;;7.70;99.90;;;;;;6065990;23;98502;-71
2023/04/20 05:28:12;;;;;;;4.78;2.47;;;7.70;99.90;;;;;;6065682;23;99871;-71
2023/04/20 05:30:39;;;;;;;4.00;2.80;;;7.70;99.90;;;;;;6092145;23;98993;-71
2023/04/20 05:33:06;;;;;;;3.05;2.58;;;7.70;99.90;;;;;;6066038;23;98485;-73
2023/04/20 05:35:33;;;;;;;4.35;2.83;;;7.80;99.90;;;;;;6092268;23;98549;-74
2023/04/20 05:38:01;;;;;;;5.55;2.95;;;7.80;99.90;;;;;;6064889;23;106263;-73
2023/04/20 05:40:28;;;;;;;7.30;2.67;;;7.80;99.90;;;;;;6091038;23;99699;-73
2023/04/20 05:42:55;;;;;;;4.53;2.70;;;7.90;99.90;;;;;;6065863;23;98553;-73
2023/04/20 05:45:22;;;;;;;4.22;2.40;;;8.00;99.90;;;;;;6066146;23;98516;-74
2023/04/20 05:47:56;;;;;;;4.00;2.65;;;8.00;99.90;;;;;;6041319;23;102322;-73
2023/04/20 05:50:24;;;;;;;7.20;2.90;;;8.00;99.90;;;;;;6065591;23;99200;-73
2023/04/20 05:52:51;;;;;;;4.25;3.05;;;7.90;99.90;;;;;;6041740;23;98457;-73
2023/04/20 05:55:19;;;;;;;4.70;2.80;;;7.90;99.90;;;;;;6092312;23;97722;-72
2023/04/20 05:57:50;;;;;;;6.38;2.95;;;8.00;99.90;;;;;;6065229;23;101628;-72
2023/04/20 06:00:18;;;;;;;3.42;2.42;;;8.00;99.90;;;;;;6065465;23;99043;-72
2023/04/20 06:02:45;;;;;;;3.42;2.33;;;8.00;99.90;;;;;;6091737;23;99248;-72
2023/04/20 06:05:12;;;;;;;3.90;2.95;;;8.00;99.90;;;;;;6065953;23;98473;-72
2023/04/20 06:07:39;;;;;;;6.28;3.22;;;7.90;99.90;;;;;;6091694;23;99240;-72
2023/04/20 06:10:07;;;;;;;6.35;3.28;;;7.80;99.90;;;;;;6065681;23;98948;-72
2023/04/20 06:12:34;;;;;;;5.72;3.60;;;7.60;99.90;;;;;;6066102;23;98502;-72
2023/04/20 06:15:02;;;;;;;5.75;3.42;;;7.40;99.90;;;;;;6091957;23;98446;-72
2023/04/20 06:17:29;;;;;;;6.07;3.42;;;7.30;99.90;;;;;;6090994;23;99682;-72
2023/04/20 06:19:56;;;;;;;11.57;4.05;;;7.10;99.90;;;;;;6091816;23;98936;-72
2023/04/20 06:22:23;;;;;;;5.88;4.15;;;7.00;99.90;;;;;;6041197;23;98581;-72
2023/04/20 06:24:50;;;;;;;8.50;3.83;;;6.90;99.90;;;;;;6065294;23;98527;-72
2023/04/20 06:27:18;;;;;;;6.00;3.55;;;6.80;99.90;;;;;;6090709;23;99955;-72
2023/04/20 06:29:45;;;;;;;5.50;3.42;;;6.80;99.90;;;;;;6065467;23;99870;-72
2023/04/20 06:32:12;;;;;;;10.48;4.00;;;6.70;99.90;;;;;;6066081;23;98410;-73
2023/04/20 06:34:39;;;;;;;7.65;4.35;;;6.70;99.90;;;;;;6091921;23;99078;-72
2023/04/20 06:37:06;;;;;;;7.45;4.50;;;6.70;99.90;;;;;;6091274;23;99220;-72
2023/04/20 06:39:34;;;;;;;5.43;4.30;;;6.70;99.90;;;;;;6040454;23;101254;-73
2023/04/20 06:42:01;;;;;;;6.82;4.85;;;6.70;99.90;;;;;;6066058;23;99126;-72
2023/04/20 06:44:28;;;;;;;5.68;4.00;;;6.70;99.90;;;;;;6066177;23;97814;-72
2023/04/20 06:46:55;;;;;;;5.95;4.47;;;6.70;99.90;;;;;;6066274;23;100184;-72
2023/04/20 06:49:22;;;;;;;5.47;4.97;;;6.50;99.90;;;;;;6065832;23;101532;-72
2023/04/20 06:51:49;;;;;;;7.10;5.32;;;6.50;99.90;;;;;;6066269;23;99753;-72
2023/04/20 06:54:16;;;;;;;6.72;5.05;;;6.50;99.90;;;;;;6092664;23;98510;-72
2023/04/20 06:56:43;;;;;;;8.40;5.07;;;6.50;99.90;;;;;;6066601;23;99235;-72
2023/04/20 06:59:10;;;;;;;9.48;5.43;;;6.50;99.90;;;;;;6092460;23;98822;-73
2023/04/20 07:01:37;;;;;;;6.22;5.10;;;6.50;99.90;;;;;;6066384;23;99076;-72
2023/04/20 07:04:04;;;;;;;7.88;5.60;;;6.50;99.90;;;;;;6066594;23;98565;-72
2023/04/20 07:06:32;;;;;;;10.18;5.53;;;6.50;99.90;;;;;;6092145;23;99174;-72
2023/04/20 07:08:58;;;;;;;6.85;5.15;;;6.50;99.90;;;;;;6092421;23;98998;-72
2023/04/20 07:11:25;;;;;;;8.30;5.32;;;6.50;99.90;;;;;;6092740;23;98524;-72
2023/04/20 07:13:52;;;;;;;7.70;5.38;;;6.50;99.90;;;;;;6092859;23;98456;-72
2023/04/20 07:16:19;;;;;;;6.18;4.55;;;6.70;99.90;;;;;;6041152;23;101143;-73
2023/04/20 07:18:46;;;;;;;8.40;5.18;;;6.80;99.90;;;;;;6092192;23;100792;-72
2023/04/20 07:21:16;;;;;;;7.38;4.95;;;6.90;99.90;;;;;;6042581;23;98882;-73
2023/04/20 07:23:43;;;;;;;7.22;4.60;;;7.00;99.90;;;;;;6092513;23;98509;-73
2023/04/20 07:26:11;;;;;;;10.10;6.20;;;7.00;99.90;;;;;;6092241;23;99176;-73
2023/04/20 07:28:38;;;;;;;7.63;5.30;;;7.20;99.90;;;;;;6092016;23;98988;-73
2023/04/20 07:31:05;;;;;;;7.85;5.55;;;7.30;99.90;;;;;;6066341;23;98542;-73
2023/04/20 07:33:34;;;;;;;12.75;6.60;;;7.50;99.90;;;;;;6092893;23;97730;-73
2023/04/20 07:36:01;;;;;;;8.75;5.88;;;7.70;99.90;;;;;;6041718;23;101777;-73
2023/04/20 07:38:28;;;;;;;8.73;4.22;;;7.90;99.90;;;;;;6092199;23;98988;-72
2023/04/20 07:40:55;;;;;;;9.10;5.60;;;8.00;99.90;;;;;;6065998;23;99304;-73
2023/04/20 07:43:22;;;;;;;8.98;5.47;;;8.00;99.90;;;;;;6066800;23;98517;-73
2023/04/20 07:45:49;;;;;;;9.93;5.53;;;8.10;99.90;;;;;;6091933;23;100281;-72
2023/04/20 07:48:16;;;;;;;10.38;5.10;;;8.10;99.90;;;;;;6066355;23;99082;-73
2023/04/20 07:50:43;;;;;;;7.93;5.20;;;8.00;99.90;;;;;;6092593;23;98539;-73
2023/04/20 07:53:10;;;;;;;6.68;4.75;;;8.00;99.90;;;;;;6066795;23;98539;-73
2023/04/20 07:55:37;;;;;;;9.65;5.70;;;7.90;99.90;;;;;;6040340;23;113627;-73
2023/04/20 07:58:04;;;;;;;9.70;4.50;;;8.00;99.90;;;;;;6092591;23;99383;-72
2023/04/20 08:00:31;;;;;;;10.00;5.22;;;8.00;99.90;;;;;;6092296;23;98395;-73
2023/04/20 08:02:58;;;;;;;9.57;5.55;;;8.10;99.90;;;;;;6066845;23;98503;-73
2023/04/20 08:05:25;;;;;;;9.02;5.70;;;8.20;99.90;;;;;;6091688;23;100929;-73
2023/04/20 08:07:53;;;;;;;9.63;6.03;;;8.40;99.90;;;;;;6066365;23;100064;-72
2023/04/20 08:10:20;;;;;;;6.50;5.32;;;8.40;99.90;;;;;;6066315;23;98439;-73
2023/04/20 08:12:47;;;;;;;10.18;5.07;;;8.50;99.90;;;;;;6065796;23;98490;-73
2023/04/20 08:15:15;;;;;;;8.70;5.03;;;8.60;99.90;;;;;;6092146;23;99386;-73
2023/04/20 08:17:42;;;;;;;8.60;5.10;;;8.60;99.90;;;;;;6041021;23;112525;-73
2023/04/20 08:20:09;;;;;;;7.10;5.32;;;8.70;99.90;;;;;;6066767;23;98393;-73
2023/04/20 08:22:37;;;;;;;8.35;5.32;;;8.90;99.90;;;;;;6092582;23;97727;-73
2023/04/20 08:25:05;;;;;;;8.70;5.10;;;8.90;99.90;;;;;;6065702;23;101784;-73
2023/04/20 08:27:32;;;;;;;6.82;4.95;;;8.80;99.90;;;;;;6091502;23;101015;-73
2023/04/20 08:29:59;;;;;;;8.70;5.63;;;8.90;99.90;;;;;;6065719;23;99516;-73
2023/04/20 08:32:26;;;;;;;11.23;5.57;;;8.90;99.90;;;;;;6066034;23;98567;-73
2023/04/20 08:34:54;;;;;;;6.82;4.75;;;8.90;99.90;;;;;;6065865;23;99347;-73
2023/04/20 08:37:22;;;;;;;8.82;4.90;;;8.90;99.90;;;;;;6065707;23;101484;-73
2023/04/20 08:39:49;;;;;;;6.85;4.75;;;8.90;99.90;;;;;;6041572;23;98550;-73
2023/04/20 08:42:16;;;;;;;6.95;5.00;;;8.80;99.90;;;;;;6066263;23;98558;-73
2023/04/20 08:44:43;;;;;;;6.82;5.35;;;8.90;99.90;;;;;;6091330;23;107813;-73
2023/04/20 08:47:10;;;;;;;6.93;5.57;;;8.90;99.90;;;;;;6092500;23;98881;-73
2023/04/20 08:49:38;;;;;;;10.20;5.35;;;8.90;99.90;;;;;;6092223;23;98528;-73
2023/04/20 08:52:06;;;;;;;8.25;5.85;;;9.00;99.90;;;;;;6092406;23;98469;-73
2023/04/20 08:54:33;;;;;;;10.40;5.53;;;9.20;99.90;;;;;;6065232;23;99988;-72
2023/04/20 08:57:03;;;;;;;6.15;4.90;;;9.30;99.90;;;;;;6042001;23;102401;-73
2023/04/20 08:59:30;;;;;;;7.97;4.90;;;9.40;99.90;;;;;;6042264;23;98503;-73
2023/04/20 09:02:10;;;;;;;6.40;4.97;;;9.30;99.90;;;;;;6092005;23;98504;-73
2023/04/20 09:04:39;;;;;;;6.75;5.15;;;9.30;99.90;;;;;;6041854;23;99307;-73
2023/04/20 09:07:15;;;;;;;8.57;6.13;;;9.30;99.90;;;;;;6091705;23;98952;-73
2023/04/20 09:09:56;;;;;;;7.53;4.85;;;9.30;99.90;;;;;;6065911;23;98498;-73
2023/04/20 09:12:23;;;;;;;7.78;5.25;;;9.20;99.90;;;;;;6066867;23;97780;-73
2023/04/20 09:14:52;;;;;;;6.03;5.05;;;9.10;99.90;;;;;;6091327;23;104896;-73
2023/04/20 09:17:31;;;;;;;7.32;5.80;;;9.10;99.90;;;;;;6091822;23;99143;-73
2023/04/20 09:19:57;;;;;;;6.63;5.47;;;9.50;99.90;;;;;;6065570;23;99307;-73
2023/04/20 09:22:35;;;;;;;9.00;5.47;;;9.60;99.90;;;;;;6092214;23;98439;-73
2023/04/20 09:25:16;;;;;;;8.73;5.80;;;9.90;99.90;;;;;;6091876;23;99283;-73
2023/04/20 09:27:53;;;;;;;7.85;6.68;;;9.90;99.90;;;;;;6091539;23;100240;-73
2023/04/20 09:30:20;;;;;;;9.98;5.72;;;9.90;99.90;;;;;;6092325;23;98383;-73
2023/04/20 09:32:47;;;;;;;7.28;6.20;;;9.80;99.90;;;;;;6065809;23;98506;-73
2023/04/20 09:35:22;;;;;;;8.98;6.40;;;9.70;99.90;;;;;;6066084;23;99221;-72
2023/04/20 09:37:49;;;;;;;7.25;5.63;;;9.60;99.90;;;;;;6091970;23;98670;-73
2023/04/20 09:40:18;;;;;;;8.88;5.57;;;9.50;99.90;;;;;;6065922;23;98538;-73
2023/04/20 09:42:48;;;;;;;10.13;5.75;;;9.50;99.90;;;;;;6091786;23;98459;-73
2023/04/20 09:45:16;;;;;;;8.38;6.72;;;9.60;99.90;;;;;;6065311;23;101129;-73
2023/04/20 09:47:43;;;;;;;8.90;6.30;;;9.70;99.90;;;;;;6065011;23;100726;-73
2023/04/20 09:50:11;;;;;;;7.13;6.28;;;9.70;99.90;;;;;;6042026;23;98498;-73
2023/04/20 09:52:52;;;;;;;9.93;7.25;;;9.70;99.90;;;;;;6065798;23;98558;-73
2023/04/20 09:55:19;;;;;;;8.45;6.78;;;9.80;99.90;;;;;;6091662;23;99136;-73
2023/04/20 09:57:48;;;;;;;8.18;6.03;;;9.80;99.90;;;;;;6065594;23;99009;-73
2023/04/20 10:00:16;;;;;;;9.57;6.10;;;9.80;99.90;;;;;;6065797;23;98565;-73
2023/04/20 10:02:46;;;;;;;9.10;6.28;;;9.90;99.90;;;;;;6041670;23;97838;-73
2023/04/20 10:05:15;;;;;;;9.48;6.60;;;10.00;99.90;;;;;;6065959;23;99457;-72
2023/04/20 10:07:43;;;;;;;6.53;5.68;;;10.10;99.90;;;;;;6065154;23;104898;-73
2023/04/20 10:10:12;;;;;;;7.32;6.30;;;10.10;99.90;;;;;;6091818;23;99838;-73
2023/04/20 10:12:50;;;;;;;8.02;7.13;;;10.30;99.90;;;;;;6092003;23;98468;-73
2023/04/20 10:15:18;;;;;;;8.65;6.57;;;10.50;99.90;;;;;;6066195;23;99270;-73
2023/04/20 10:17:45;;;;;;;7.60;6.82;;;10.50;99.90;;;;;;6065379;23;99005;-73
2023/04/20 10:20:20;;;;;;;8.00;7.18;;;10.70;99.90;;;;;;6091262;23;98447;-73
2023/04/20 10:22:47;;;;;;;7.47;6.68;;;10.80;99.90;;;;;;6091512;23;98477;-73
2023/04/20 10:25:18;;;;;;;8.75;6.97;;;10.60;99.90;;;;;;6090917;23;110894;-73
2023/04/20 10:28:03;;;;;;;7.82;7.03;;;10.60;99.90;;;;;;6065842;23;99113;-73
2023/04/20 10:30:32;;;;;;;10.32;8.05;;;10.50;99.90;;;;;;6065723;23;98567;-73
2023/04/20 10:33:02;;;;;;;9.73;8.18;;;10.40;99.90;;;;;;6065635;23;98546;-72
2023/04/20 10:35:47;;;;;;;9.68;8.38;;;10.30;99.90;;;;;;6090942;23;102129;-73
2023/04/20 10:38:15;;;;;;;9.70;8.68;;;10.20;99.90;;;;;;6065136;23;102406;-73
2023/04/20 10:40:42;;;;;;;11.32;8.95;;;10.10;99.90;;;;;;6060144;23;98522;-73
2023/04/20 10:43:21;;;;;;;10.38;7.82;;;10.10;99.90;;;;;;6060545;23;98549;-73
2023/04/20 10:45:49;;;;;;;11.07;9.73;;;10.10;99.90;;;;;;6061632;23;99302;-73
2023/04/20 10:48:16;;;;;;;12.15;9.07;;;10.10;99.90;;;;;;6035944;23;101900;-73
2023/04/20 10:50:44;;;;;;;11.52;8.68;;;10.10;99.90;;;;;;6036517;23;98480;-73
2023/04/20 10:53:19;;;;;;;11.43;8.80;;;10.40;99.90;;;;;;6085321;23;97816;-73
2023/04/20 10:55:47;;;;;;;10.07;8.27;;;10.70;99.90;;;;;;6060278;23;101781;-73
2023/04/20 10:58:23;;;;;;;11.32;9.18;;;10.60;99.90;;;;;;6060307;23;99440;-73
2023/04/20 11:01:00;;;;;;;10.68;8.90;;;10.80;99.90;;;;;;6035748;23;99200;-73
2023/04/20 11:03:32;;;;;;;10.77;7.57;;;10.90;99.90;;;;;;6060642;23;98917;-73
2023/04/20 11:06:01;;;;;;;8.43;7.32;;;10.90;99.90;;;;;;6059778;23;101875;-73
2023/04/20 11:08:42;;;;;;;10.75;8.25;;;10.70;99.90;;;;;;6061185;23;113866;-73
2023/04/20 11:11:29;;;;;;;11.88;8.77;;;10.60;99.90;;;;;;6062163;23;99007;-73
2023/04/20 11:14:06;;;;;;;9.48;8.48;;;10.60;99.90;;;;;;6061929;23;98386;-73
2023/04/20 11:16:35;;;;;;;11.32;9.57;;;10.50;99.90;;;;;;6061620;23;99307;-73
2023/04/20 11:19:28;;;;;;;11.30;9.13;;;10.50;99.90;;;;;;6060155;23;100549;-73
2023/04/20 11:21:55;;;;;;;8.70;7.75;;;11.00;99.90;;;;;;6059995;23;98477;-73
2023/04/20 11:24:30;;;;;;;11.13;9.48;;;11.30;99.90;;;;;;6060279;23;98545;-73
2023/04/20 11:26:57;;;;;;;10.93;8.48;;;11.60;99.90;;;;;;6060975;23;100229;-73
2023/04/20 11:29:33;;;;;;;10.85;8.80;;;11.80;99.90;;;;;;6059999;23;99652;-73
2023/04/20 11:32:06;;;;;;;9.38;8.40;;;12.10;99.90;;;;;;6061683;23;99149;-73
2023/04/20 11:34:34;;;;;;;9.80;8.80;;;12.60;99.90;;;;;;6061740;23;98523;-73
2023/04/20 11:37:08;;;;;;;11.52;10.30;;;12.80;99.90;;;;;;6060695;23;99934;-73
2023/04/20 11:39:37;;;;;;;11.02;9.63;;;12.90;99.90;;;;;;6064262;23;99148;-73
2023/04/20 11:42:05;;;;;;;11.68;10.27;;;13.20;99.90;;;;;;6092362;23;98496;-73
2023/04/20 11:44:33;;;;;;;11.02;9.90;;;13.30;99.90;;;;;;6066054;23;97850;-73
2023/04/20 11:47:00;;;;;;;10.63;8.75;;;13.30;99.90;;;;;;6041766;23;101960;-73
2023/04/20 11:49:28;;;;;;;10.27;9.20;;;13.20;99.90;;;;;;6091942;23;105182;-73
2023/04/20 11:51:55;;;;;;;9.50;8.10;;;13.30;99.90;;;;;;6065977;23;99227;-73
2023/04/20 11:54:22;;;;;;;7.70;6.85;;;13.40;99.90;;;;;;6066657;23;98562;-73
2023/04/20 11:56:50;;;;;;;8.40;6.93;;;13.50;99.90;;;;;;6066495;23;99201;-73
2023/04/20 11:59:18;;;;;;;11.20;7.78;;;13.30;99.90;;;;;;6091891;23;99021;-73
2023/04/20 12:01:46;;;;;;;10.05;8.52;;;13.40;99.90;;;;;;6042451;23;98620;-73
2023/04/20 12:04:13;;;;;;;10.70;7.60;;;13.50;99.90;;;;;;6092344;23;98461;-73
2023/04/20 12:06:41;;;;;;;9.43;8.38;;;13.60;99.90;;;;;;6092249;23;99191;-73
2023/04/20 12:09:08;;;;;;;11.50;9.13;;;13.40;99.90;;;;;;6092302;23;99010;-73
2023/04/20 12:11:35;;;;;;;10.32;7.88;;;13.50;99.90;;;;;;6092596;23;98425;-73
2023/04/20 12:14:03;;;;;;;13.30;9.07;;;13.40;99.90;;;;;;6092272;23;98467;-73
2023/04/20 12:16:30;;;;;;;10.02;9.02;;;13.40;99.90;;;;;;6065065;23;102645;-73
2023/04/20 12:18:57;;;;;;;10.05;9.00;;;13.50;99.90;;;;;;6091551;23;111093;-73
2023/04/20 12:21:24;;;;;;;9.90;9.00;;;13.40;99.90;;;;;;6092706;23;98407;-73
2023/04/20 12:23:51;;;;;;;8.98;8.00;;;13.40;99.90;;;;;;6042042;23;99072;-73
2023/04/20 12:26:18;;;;;;;10.57;9.48;;;13.30;99.90;;;;;;6091739;23;99297;-73
2023/04/20 12:28:45;;;;;;;12.32;9.85;;;13.10;99.90;;;;;;6065735;23;101543;-73
2023/04/20 12:31:12;;;;;;;10.93;8.85;;;12.90;99.90;;;;;;6092234;23;98397;-73
2023/04/20 12:33:39;;;;;;;10.23;8.65;;;12.80;99.90;;;;;;6093019;23;98241;-73
2023/04/20 12:36:06;;;;;;;10.95;9.85;;;12.80;99.90;;;;;;6065501;23;100292;-73
2023/04/20 12:38:33;;;;;;;10.60;9.60;;;12.90;99.90;;;;;;6041549;23;101786;-73
2023/04/20 12:41:00;;;;;;;10.77;8.82;;;12.70;99.90;;;;;;6065879;23;99267;-73
2023/04/20 12:43:28;;;;;;;7.93;7.15;;;12.70;99.90;;;;;;6065636;23;98959;-73
2023/04/20 12:45:55;;;;;;;11.52;8.90;;;12.60;99.90;;;;;;6091889;23;99306;-73
2023/04/20 12:48:22;;;;;;;10.38;8.95;;;12.70;99.90;;;;;;6065797;23;99105;-73
2023/04/20 12:50:50;;;;;;;10.05;8.52;;;12.70;99.90;;;;;;6066078;23;98536;-73
2023/04/20 12:53:17;;;;;;;8.52;7.68;;;12.80;99.90;;;;;;6066263;23;98484;-73
2023/04/20 12:55:44;;;;;;;9.57;8.65;;;12.90;99.90;;;;;;6066144;23;99153;-73
2023/04/20 12:58:11;;;;;;;9.38;7.65;;;13.10;99.90;;;;;;6065723;23;101546;-73